Time;durP1;ratioP1;P1;durP2;ratioP2;P2;SDS_P1;SDS_P2;PMS_P1;PMS_P2;Temp;Humidity;BMP_temperature;BMP_pressure;BME280_temperature;BME280_humidity;BME280_pressure;Samples;Min_cycle;Max_cycle;Signal;HPM_P1;HPM_P2
2021/06/03 00:02:09;;;;;;;6.43;5.50;;;19.30;99.90;;;;;;5073116;28;20055;-89
2021/06/03 00:04:37;;;;;;;6.15;5.50;;;19.30;99.90;;;;;;5073190;28;20031;-90
2021/06/03 00:07:03;;;;;;;8.73;6.10;;;19.30;99.90;;;;;;5073032;28;20020;-89
2021/06/03 00:09:29;;;;;;;7.07;4.97;;;19.30;99.90;;;;;;5073126;28;20008;-90
2021/06/03 00:11:55;;;;;;;7.07;5.50;;;19.20;99.90;;;;;;5074271;28;20124;-90
2021/06/03 00:14:20;;;;;;;5.70;4.95;;;19.10;99.90;;;;;;5072967;28;20385;-91
2021/06/03 00:16:47;;;;;;;5.60;4.97;;;19.20;99.90;;;;;;5072764;28;20119;-90
2021/06/03 00:19:13;;;;;;;6.28;4.82;;;19.10;99.90;;;;;;5076524;28;20024;-91
2021/06/03 00:21:44;;;;;;;11.07;5.30;;;19.10;99.90;;;;;;5077706;28;20119;-90
2021/06/03 00:24:10;;;;;;;6.50;5.25;;;19.10;99.90;;;;;;5076888;28;20067;-90
2021/06/03 00:26:36;;;;;;;5.40;4.55;;;19.10;99.90;;;;;;5077013;28;20025;-90
2021/06/03 00:29:04;;;;;;;5.50;4.70;;;19.10;99.90;;;;;;5076690;28;20397;-90
2021/06/03 00:31:29;;;;;;;5.50;4.57;;;19.20;99.90;;;;;;5078088;28;20107;-89
2021/06/03 00:33:55;;;;;;;8.00;5.05;;;19.20;99.90;;;;;;5078047;28;20055;-89
2021/06/03 00:36:21;;;;;;;5.68;5.18;;;19.20;99.90;;;;;;5078011;28;20025;-89
2021/06/03 00:38:46;;;;;;;5.95;5.38;;;19.20;99.90;;;;;;5076795;28;20070;-89
2021/06/03 00:41:14;;;;;;;5.15;4.63;;;19.20;99.90;;;;;;5076768;28;20017;-90
2021/06/03 00:43:40;;;;;;;9.35;5.13;;;19.20;99.90;;;;;;5076788;28;20086;-90
2021/06/03 00:46:06;;;;;;;8.40;5.60;;;19.10;99.90;;;;;;5077203;28;20016;-90
2021/06/03 00:48:32;;;;;;;6.15;5.55;;;19.10;99.90;;;;;;5076555;28;20024;-89
2021/06/03 00:51:01;;;;;;;6.80;5.32;;;19.10;99.90;;;;;;5076144;28;20024;-90
2021/06/03 00:53:28;;;;;;;7.50;6.00;;;19.10;99.90;;;;;;5076714;28;20025;-90
2021/06/03 00:55:58;;;;;;;6.05;5.47;;;19.00;99.90;;;;;;5076407;28;20021;-89
2021/06/03 00:58:25;;;;;;;6.90;5.40;;;19.00;99.90;;;;;;5078024;28;20024;-90
2021/06/03 01:00:53;;;;;;;11.10;5.90;;;19.00;99.90;;;;;;5076524;28;20024;-90
2021/06/03 01:03:20;;;;;;;6.20;5.43;;;18.90;99.90;;;;;;5077400;28;20059;-90
2021/06/03 01:05:50;;;;;;;7.50;5.70;;;18.90;99.90;;;;;;5076142;28;20027;-90
2021/06/03 01:08:22;;;;;;;8.18;5.60;;;18.80;99.90;;;;;;5077204;28;20029;-89
2021/06/03 01:11:18;;;;;;;9.25;5.97;;;18.80;99.90;;;;;;5076147;28;20082;-90
2021/06/03 01:13:52;;;;;;;6.72;5.82;;;18.80;99.90;;;;;;5078358;28;20580;-90
2021/06/03 01:16:19;;;;;;;6.68;5.45;;;18.80;99.90;;;;;;5075870;28;20094;-90
2021/06/03 01:18:46;;;;;;;6.43;5.40;;;18.80;99.90;;;;;;5075984;28;20021;-90
2021/06/03 01:21:21;;;;;;;7.35;5.30;;;18.90;99.90;;;;;;5075866;28;20400;-90
2021/06/03 01:24:17;;;;;;;7.25;5.60;;;18.90;99.90;;;;;;5077068;28;20493;-89
2021/06/03 01:26:44;;;;;;;6.18;5.57;;;18.90;99.90;;;;;;5076447;28;20035;-89
2021/06/03 01:29:10;;;;;;;6.40;5.30;;;18.80;99.90;;;;;;5074562;28;20028;-89
2021/06/03 01:31:36;;;;;;;7.75;5.80;;;18.80;99.90;;;;;;5075679;28;20469;-89
2021/06/03 01:34:03;;;;;;;6.95;5.50;;;18.90;99.90;;;;;;5077510;28;20074;-89
2021/06/03 01:36:29;;;;;;;9.57;5.97;;;18.80;99.90;;;;;;5075556;28;20031;-90
2021/06/03 01:38:54;;;;;;;8.38;5.63;;;18.80;99.90;;;;;;5075727;28;20024;-89
2021/06/03 01:41:21;;;;;;;6.38;5.75;;;18.90;99.90;;;;;;5075686;28;20028;-89
2021/06/03 01:43:47;;;;;;;7.82;5.60;;;18.80;99.90;;;;;;5075461;28;20099;-90
2021/06/03 01:46:14;;;;;;;5.75;4.80;;;18.80;99.90;;;;;;5077395;28;20484;-89
2021/06/03 01:48:41;;;;;;;8.48;5.82;;;18.70;99.90;;;;;;5077585;28;20082;-89
2021/06/03 01:51:10;;;;;;;6.40;5.50;;;18.70;99.90;;;;;;5076343;28;20043;-89
2021/06/03 01:53:38;;;;;;;6.00;5.03;;;18.70;99.90;;;;;;5075303;28;20008;-89
2021/06/03 01:56:06;;;;;;;5.47;4.75;;;18.70;99.90;;;;;;5075217;28;20444;-89
2021/06/03 01:58:32;;;;;;;5.55;4.90;;;18.70;99.90;;;;;;5076299;28;20020;-89
2021/06/03 02:00:59;;;;;;;5.72;5.13;;;18.70;99.90;;;;;;5074624;28;20047;-89
2021/06/03 02:03:26;;;;;;;6.43;4.80;;;18.80;99.90;;;;;;5075267;28;20024;-89
2021/06/03 02:05:54;;;;;;;6.97;5.32;;;18.80;99.90;;;;;;5074553;28;20035;-89
2021/06/03 02:08:20;;;;;;;8.27;5.55;;;18.80;99.90;;;;;;5074730;28;20039;-89
2021/06/03 02:10:47;;;;;;;5.45;4.95;;;18.70;99.90;;;;;;5074945;28;20025;-89
2021/06/03 02:13:19;;;;;;;5.85;5.22;;;18.70;99.90;;;;;;5074723;28;20031;-90
2021/06/03 02:16:07;;;;;;;5.65;5.10;;;18.60;99.90;;;;;;5074768;28;20020;-89
2021/06/03 02:18:39;;;;;;;7.28;5.32;;;18.60;99.90;;;;;;5074352;28;20029;-89
2021/06/03 02:21:06;;;;;;;7.50;5.80;;;18.60;99.90;;;;;;5077159;28;20469;-90
2021/06/03 02:23:33;;;;;;;5.53;5.03;;;18.70;99.90;;;;;;5074602;28;20094;-90
2021/06/03 02:26:01;;;;;;;6.68;5.10;;;18.70;99.90;;;;;;5074802;28;20035;-89
2021/06/03 02:28:29;;;;;;;5.63;5.13;;;18.70;99.90;;;;;;5074219;28;20056;-89
2021/06/03 02:30:56;;;;;;;5.95;5.45;;;18.70;99.90;;;;;;5076547;28;20043;-89
2021/06/03 02:33:22;;;;;;;6.85;5.20;;;18.70;99.90;;;;;;5074098;28;20021;-89
2021/06/03 02:35:49;;;;;;;5.57;5.07;;;18.60;99.90;;;;;;5074179;28;20028;-88
2021/06/03 02:38:16;;;;;;;6.78;5.50;;;18.60;99.90;;;;;;5074148;28;20065;-88
2021/06/03 02:40:42;;;;;;;6.10;5.60;;;18.60;99.90;;;;;;5074949;28;20089;-89
2021/06/03 02:43:08;;;;;;;6.38;5.63;;;18.60;99.90;;;;;;5074966;28;20106;-89
2021/06/03 02:45:34;;;;;;;6.63;5.88;;;18.60;99.90;;;;;;5074353;28;20031;-89
2021/06/03 02:48:02;;;;;;;11.05;6.45;;;18.60;99.90;;;;;;5074048;28;20028;-89
2021/06/03 02:50:28;;;;;;;7.07;6.05;;;18.60;99.90;;;;;;5075308;28;20024;-89
2021/06/03 02:52:56;;;;;;;6.75;6.05;;;18.60;99.90;;;;;;5074465;28;20016;-88
2021/06/03 02:55:23;;;;;;;6.78;5.63;;;18.50;99.90;;;;;;5073843;28;20031;-90
2021/06/03 02:57:50;;;;;;;7.10;6.40;;;18.50;99.90;;;;;;5074872;28;20032;-89
2021/06/03 03:00:20;;;;;;;10.00;6.50;;;18.40;99.90;;;;;;5075367;28;20021;-88
2021/06/03 03:02:46;;;;;;;8.30;5.90;;;18.40;99.90;;;;;;5074553;28;20407;-88
2021/06/03 03:05:12;;;;;;;7.10;6.40;;;18.30;99.90;;;;;;5074931;28;20024;-87
2021/06/03 03:07:38;;;;;;;7.53;6.57;;;18.30;99.90;;;;;;5074724;28;20479;-88
2021/06/03 03:10:06;;;;;;;8.00;6.28;;;18.40;99.90;;;;;;5073790;28;20085;-88
2021/06/03 03:12:32;;;;;;;7.20;6.50;;;18.40;99.90;;;;;;5073843;28;20615;-88
2021/06/03 03:14:58;;;;;;;7.00;6.30;;;18.30;99.90;;;;;;5073737;28;20036;-88
2021/06/03 03:17:24;;;;;;;9.48;5.95;;;18.30;99.90;;;;;;5074870;28;20057;-87
2021/06/03 03:19:49;;;;;;;7.35;6.65;;;18.30;99.90;;;;;;5075595;28;20534;-88
2021/06/03 03:22:15;;;;;;;7.25;6.55;;;18.40;99.90;;;;;;5073410;28;20041;-88
2021/06/03 03:24:41;;;;;;;7.07;6.47;;;18.40;99.90;;;;;;5073687;28;20025;-88
2021/06/03 03:27:07;;;;;;;9.23;6.47;;;18.30;99.90;;;;;;5073647;28;20077;-88
2021/06/03 03:29:32;;;;;;;8.30;6.88;;;18.30;99.90;;;;;;5074060;28;20028;-89
2021/06/03 03:31:58;;;;;;;8.13;6.85;;;18.30;99.90;;;;;;5075369;28;20059;-89
2021/06/03 03:34:24;;;;;;;10.73;7.18;;;18.30;99.90;;;;;;5074230;28;20027;-90
2021/06/03 03:36:50;;;;;;;7.95;7.15;;;18.30;99.90;;;;;;5073891;28;20115;-90
2021/06/03 03:39:15;;;;;;;7.55;6.80;;;18.30;99.90;;;;;;5073806;28;20028;-90
2021/06/03 03:41:41;;;;;;;7.47;6.72;;;18.30;99.90;;;;;;5073493;28;20028;-89
2021/06/03 03:44:07;;;;;;;7.53;6.85;;;18.30;99.90;;;;;;5075547;28;20067;-90
2021/06/03 03:46:33;;;;;;;8.75;7.43;;;18.40;99.90;;;;;;5074135;28;20028;-90
2021/06/03 03:48:58;;;;;;;8.55;7.45;;;18.50;99.90;;;;;;5073416;28;20124;-90
2021/06/03 03:51:25;;;;;;;10.07;6.90;;;18.50;99.90;;;;;;5073471;28;20025;-89
2021/06/03 03:53:51;;;;;;;8.38;6.88;;;18.40;99.90;;;;;;5073721;28;20154;-90
2021/06/03 03:56:16;;;;;;;7.40;6.70;;;18.50;99.90;;;;;;5073299;28;20049;-89
2021/06/03 03:58:43;;;;;;;10.00;7.40;;;18.50;99.90;;;;;;5073341;28;20024;-89
2021/06/03 04:01:10;;;;;;;8.35;6.93;;;18.60;99.90;;;;;;5075153;28;20021;-89
2021/06/03 04:03:37;;;;;;;8.52;6.95;;;18.60;99.90;;;;;;5073244;28;20070;-89
2021/06/03 04:06:04;;;;;;;7.97;7.15;;;18.70;99.90;;;;;;5073936;28;20025;-90
2021/06/03 04:08:30;;;;;;;8.60;7.25;;;18.70;99.90;;;;;;5072932;28;20028;-90
2021/06/03 04:10:55;;;;;;;9.25;7.20;;;18.70;99.90;;;;;;5074045;28;20021;-90
2021/06/03 04:13:22;;;;;;;13.25;6.72;;;18.60;99.90;;;;;;5072740;28;20028;-90
2021/06/03 04:15:47;;;;;;;8.75;6.78;;;18.60;99.90;;;;;;5072313;28;20664;-90
2021/06/03 04:18:13;;;;;;;14.10;7.35;;;18.60;99.90;;;;;;5072532;28;20059;-90
2021/06/03 04:20:39;;;;;;;12.32;8.05;;;18.60;99.90;;;;;;5072827;28;20171;-91
2021/06/03 04:23:05;;;;;;;8.65;7.75;;;18.60;99.90;;;;;;5072565;28;20048;-90
2021/06/03 04:25:31;;;;;;;10.52;8.10;;;18.60;99.90;;;;;;5073090;28;20085;-90
2021/06/03 04:27:57;;;;;;;10.57;7.53;;;18.60;99.90;;;;;;5072811;28;20119;-89
2021/06/03 04:30:25;;;;;;;10.50;8.55;;;18.60;99.90;;;;;;5072796;28;20366;-90
2021/06/03 04:32:51;;;;;;;9.85;8.10;;;18.70;99.90;;;;;;5074959;28;20021;-89
2021/06/03 04:35:19;;;;;;;9.82;8.02;;;18.70;99.90;;;;;;5072969;28;20036;-90
2021/06/03 04:37:49;;;;;;;15.52;9.05;;;18.70;99.90;;;;;;5072918;28;20020;-87
2021/06/03 04:40:16;;;;;;;9.55;8.55;;;18.70;99.90;;;;;;5074184;28;20035;-89
2021/06/03 04:42:42;;;;;;;15.43;9.48;;;18.70;99.90;;;;;;5074177;28;20036;-89
2021/06/03 04:45:09;;;;;;;11.70;9.45;;;18.70;99.90;;;;;;5073551;28;20020;-88
2021/06/03 04:47:34;;;;;;;11.00;8.82;;;18.60;99.90;;;;;;5072736;28;20031;-89
2021/06/03 04:50:00;;;;;;;13.38;9.43;;;18.70;99.90;;;;;;5072443;28;20013;-89
2021/06/03 04:52:28;;;;;;;11.88;9.35;;;18.70;99.90;;;;;;5073970;28;20024;-88
2021/06/03 04:55:09;;;;;;;12.45;9.98;;;18.80;99.90;;;;;;5072650;28;20088;-88
2021/06/03 04:57:36;;;;;;;13.02;9.75;;;18.80;99.90;;;;;;5072826;28;20077;-88
2021/06/03 05:00:23;;;;;;;12.55;9.43;;;18.90;99.90;;;;;;5071920;28;20029;-88
2021/06/03 05:02:49;;;;;;;12.20;9.50;;;18.90;99.90;;;;;;5072675;28;20040;-89
2021/06/03 05:05:15;;;;;;;11.25;9.25;;;18.90;99.90;;;;;;5074256;28;20020;-89
2021/06/03 05:07:41;;;;;;;10.82;9.45;;;18.90;99.90;;;;;;5078699;28;20481;-88
2021/06/03 05:10:08;;;;;;;11.70;9.93;;;18.90;99.90;;;;;;5079450;28;20024;-90
2021/06/03 05:12:34;;;;;;;15.38;10.57;;;18.90;99.90;;;;;;5078632;28;20025;-82
2021/06/03 05:15:00;;;;;;;12.30;9.95;;;18.90;99.90;;;;;;5078583;28;20381;-83
2021/06/03 05:17:26;;;;;;;13.80;10.80;;;19.00;99.90;;;;;;5078740;28;20078;-83
2021/06/03 05:19:51;;;;;;;12.05;10.70;;;19.00;99.90;;;;;;5079006;28;20021;-85
2021/06/03 05:22:17;;;;;;;14.43;11.43;;;19.20;99.90;;;;;;5079343;28;20029;-85
2021/06/03 05:24:43;;;;;;;11.18;9.98;;;19.20;99.90;;;;;;5078994;28;20032;-82
2021/06/03 05:27:09;;;;;;;13.38;10.57;;;19.00;99.90;;;;;;5079673;28;20703;-84
2021/06/03 05:29:35;;;;;;;12.55;10.93;;;19.00;99.90;;;;;;5078422;28;20036;-84
2021/06/03 05:32:01;;;;;;;12.70;10.77;;;19.00;99.90;;;;;;5076916;28;20706;-84
2021/06/03 05:34:27;;;;;;;13.77;10.77;;;19.10;99.90;;;;;;5077580;28;20031;-84
2021/06/03 05:36:53;;;;;;;11.10;9.98;;;19.20;99.90;;;;;;5077647;28;20020;-84
2021/06/03 05:39:19;;;;;;;12.90;10.95;;;19.10;99.90;;;;;;5080176;28;20019;-83
2021/06/03 05:41:45;;;;;;;13.07;11.70;;;19.20;99.90;;;;;;5077473;28;20051;-84
2021/06/03 05:44:12;;;;;;;12.10;10.48;;;19.30;99.90;;;;;;5076517;28;20101;-83
2021/06/03 05:46:42;;;;;;;13.57;12.00;;;19.30;99.90;;;;;;5075045;28;20028;-83
2021/06/03 05:49:09;;;;;;;17.20;11.48;;;19.30;99.90;;;;;;5078701;28;20074;-83
2021/06/03 05:51:35;;;;;;;15.25;11.02;;;19.30;99.90;;;;;;5059071;28;20021;-83
2021/06/03 05:54:00;;;;;;;13.73;11.45;;;19.50;99.90;;;;;;5072565;28;20035;-84
2021/06/03 05:56:26;;;;;;;15.05;12.82;;;19.50;99.90;;;;;;5074997;28;20078;-83
2021/06/03 05:58:55;;;;;;;15.23;12.48;;;19.40;99.90;;;;;;5070512;28;20052;-84
2021/06/03 06:01:23;;;;;;;13.77;12.00;;;19.50;99.90;;;;;;5063529;28;20623;-83
2021/06/03 06:03:57;;;;;;;13.75;12.30;;;19.50;99.90;;;;;;5067258;28;20071;-84
2021/06/03 06:06:24;;;;;;;15.63;12.70;;;19.50;99.90;;;;;;5075568;28;20392;-84
2021/06/03 06:08:51;;;;;;;16.58;12.85;;;19.50;99.90;;;;;;5076485;28;20344;-83
2021/06/03 06:11:17;;;;;;;15.25;12.50;;;19.60;99.90;;;;;;5062420;28;20469;-83
2021/06/03 06:13:43;;;;;;;17.77;12.45;;;19.80;99.90;;;;;;5070183;28;20132;-84
2021/06/03 06:16:09;;;;;;;15.75;12.52;;;19.90;99.90;;;;;;5071848;28;20072;-85
2021/06/03 06:18:35;;;;;;;14.73;12.02;;;19.90;99.90;;;;;;5053904;28;20384;-84
2021/06/03 06:21:02;;;;;;;18.95;12.55;;;20.10;99.90;;;;;;5062495;28;20032;-85
2021/06/03 06:23:27;;;;;;;18.10;13.60;;;20.10;99.90;;;;;;5068339;28;20445;-86
2021/06/03 06:25:53;;;;;;;17.02;13.35;;;20.30;99.90;;;;;;5078081;28;20098;-82
2021/06/03 06:28:19;;;;;;;16.45;12.73;;;20.40;99.90;;;;;;5053777;28;20388;-81
2021/06/03 06:30:46;;;;;;;22.10;13.18;;;20.60;99.90;;;;;;5058897;28;20033;-83
2021/06/03 06:33:14;;;;;;;15.13;12.52;;;20.70;99.90;;;;;;5060582;28;20025;-80
2021/06/03 06:35:39;;;;;;;16.20;12.25;;;20.80;99.90;;;;;;5061307;28;20497;-81
2021/06/03 06:38:05;;;;;;;17.23;13.80;;;21.10;99.90;;;;;;5063589;28;20055;-81
2021/06/03 06:40:31;;;;;;;15.50;13.38;;;21.20;99.90;;;;;;5063312;28;20095;-81
2021/06/03 06:42:57;;;;;;;16.75;13.32;;;21.20;99.90;;;;;;5063679;28;20024;-80
2021/06/03 06:45:25;;;;;;;16.83;14.35;;;21.00;99.90;;;;;;5063990;28;20454;-81
2021/06/03 06:47:51;;;;;;;19.38;15.55;;;21.00;99.90;;;;;;5064154;28;20043;-81
2021/06/03 06:50:17;;;;;;;18.73;15.60;;;20.80;99.90;;;;;;5059947;28;20033;-81
2021/06/03 06:52:42;;;;;;;21.52;16.17;;;20.70;99.90;;;;;;5069540;28;20054;-82
2021/06/03 06:55:10;;;;;;;20.00;16.60;;;20.70;99.90;;;;;;5063120;28;20032;-82
2021/06/03 06:57:36;;;;;;;23.35;18.35;;;20.70;99.90;;;;;;5064636;28;20028;-81
2021/06/03 07:00:10;;;;;;;24.27;18.73;;;20.60;99.90;;;;;;5060262;28;20033;-82
2021/06/03 07:02:37;;;;;;;26.20;19.50;;;20.70;99.90;;;;;;5062412;28;20183;-82
2021/06/03 07:05:06;;;;;;;25.25;18.88;;;20.70;99.90;;;;;;5069046;28;20028;-83
2021/06/03 07:07:32;;;;;;;23.15;17.38;;;21.00;99.90;;;;;;5057216;28;20023;-83
2021/06/03 07:09:58;;;;;;;21.50;17.77;;;21.20;99.90;;;;;;5059027;28;20290;-82
2021/06/03 07:12:24;;;;;;;25.55;17.88;;;21.50;99.90;;;;;;5074581;28;20028;-80
2021/06/03 07:14:50;;;;;;;20.63;18.02;;;21.40;99.90;;;;;;5068854;28;20025;-80
2021/06/03 07:17:17;;;;;;;19.90;16.33;;;21.70;99.90;;;;;;5060975;28;20190;-78
2021/06/03 07:19:42;;;;;;;21.38;18.80;;;21.80;99.90;;;;;;5043314;28;20484;-78
2021/06/03 07:22:08;;;;;;;25.65;18.48;;;21.80;99.90;;;;;;5055816;28;20055;-80
2021/06/03 07:24:36;;;;;;;23.90;17.67;;;21.90;99.90;;;;;;5063721;28;20928;-78
2021/06/03 07:27:02;;;;;;;22.45;18.13;;;21.80;99.90;;;;;;5062563;28;20377;-79
2021/06/03 07:29:28;;;;;;;23.77;19.35;;;21.80;99.90;;;;;;5061211;28;20029;-79
2021/06/03 07:31:54;;;;;;;25.38;19.63;;;21.50;99.90;;;;;;5067921;28;20473;-78
2021/06/03 07:34:20;;;;;;;25.75;21.88;;;21.50;99.90;;;;;;5059878;28;20024;-79
2021/06/03 07:36:46;;;;;;;33.42;22.42;;;21.50;99.90;;;;;;5066604;28;20060;-80
2021/06/03 07:39:14;;;;;;;25.58;22.88;;;21.70;99.90;;;;;;5059710;28;20043;-79
2021/06/03 07:41:40;;;;;;;27.45;22.60;;;22.10;99.90;;;;;;5071099;28;20501;-80
2021/06/03 07:44:06;;;;;;;28.27;21.33;;;22.10;99.90;;;;;;5067549;28;20097;-79
2021/06/03 07:46:32;;;;;;;26.05;22.27;;;22.20;99.90;;;;;;5061459;28;20450;-79
2021/06/03 07:48:58;;;;;;;26.13;21.85;;;22.00;99.90;;;;;;5060057;28;20531;-78
2021/06/03 07:51:24;;;;;;;25.83;21.70;;;22.50;99.90;;;;;;5066702;28;20036;-80
2021/06/03 07:53:49;;;;;;;26.60;21.48;;;22.90;99.90;;;;;;5066736;28;20032;-79
2021/06/03 07:56:15;;;;;;;23.55;21.00;;;23.00;99.90;;;;;;5067506;28;20047;-79
2021/06/03 07:58:41;;;;;;;28.58;22.20;;;22.70;99.90;;;;;;5066080;28;20385;-80
2021/06/03 08:01:07;;;;;;;33.40;22.85;;;22.30;99.90;;;;;;5062385;28;20029;-80
2021/06/03 08:03:32;;;;;;;27.30;24.48;;;22.10;99.90;;;;;;5060459;28;20120;-80
2021/06/03 08:05:58;;;;;;;23.90;21.10;;;22.10;99.90;;;;;;5066306;28;20035;-80
2021/06/03 08:08:24;;;;;;;28.17;23.08;;;22.10;99.90;;;;;;5063133;28;20033;-80
2021/06/03 08:10:50;;;;;;;27.60;20.00;;;22.20;99.90;;;;;;5061893;28;20032;-79
2021/06/03 08:13:15;;;;;;;23.40;16.95;;;22.50;99.90;;;;;;5060183;28;20047;-80
2021/06/03 08:15:43;;;;;;;18.83;14.43;;;23.00;99.90;;;;;;5065575;28;20052;-81
2021/06/03 08:18:10;;;;;;;15.43;13.30;;;23.20;99.90;;;;;;5068041;28;20035;-81
2021/06/03 08:20:44;;;;;;;19.00;12.88;;;23.40;99.90;;;;;;5053598;28;20036;-80
2021/06/03 08:23:12;;;;;;;15.95;13.27;;;23.00;99.90;;;;;;5068753;28;20048;-80
2021/06/03 08:25:38;;;;;;;17.63;12.95;;;22.80;99.90;;;;;;5067829;28;20124;-79
2021/06/03 08:28:04;;;;;;;16.95;12.38;;;22.90;99.90;;;;;;5063921;28;20111;-80
2021/06/03 08:30:31;;;;;;;19.40;13.98;;;23.10;99.90;;;;;;5060334;28;20025;-78
2021/06/03 08:32:57;;;;;;;15.35;13.40;;;23.10;99.90;;;;;;5057330;28;20122;-79
2021/06/03 08:35:24;;;;;;;15.18;13.18;;;23.20;99.90;;;;;;5067049;28;20372;-81
2021/06/03 08:37:55;;;;;;;17.92;13.25;;;23.80;99.90;;;;;;5058946;28;20029;-80
2021/06/03 08:40:29;;;;;;;16.25;12.40;;;24.10;99.90;;;;;;5063859;28;20024;-80
2021/06/03 08:42:56;;;;;;;15.23;12.48;;;24.30;99.90;;;;;;5084136;28;20434;-81
2021/06/03 08:45:25;;;;;;;18.27;13.15;;;24.40;99.90;;;;;;5070926;28;20074;-80
2021/06/03 08:47:52;;;;;;;15.93;12.00;;;24.50;99.90;;;;;;5063907;28;20794;-80
2021/06/03 08:50:19;;;;;;;17.88;12.82;;;24.60;99.90;;;;;;5073470;28;20524;-80
2021/06/03 08:52:45;;;;;;;15.05;12.05;;;25.30;99.90;;;;;;5066219;28;20032;-77
2021/06/03 08:56:13;;;;;;;17.00;12.63;;;25.80;99.90;;;;;;5073197;28;20107;-79
2021/06/03 08:58:06;;;;;;;19.30;12.40;;;25.20;99.90;;;;;;5067854;28;20551;-77
2021/06/03 09:00:33;;;;;;;15.23;12.50;;;24.80;99.90;;;;;;5065721;28;20111;-78
2021/06/03 09:03:00;;;;;;;15.00;11.63;;;24.70;99.90;;;;;;5065661;28;20068;-79
2021/06/03 09:05:27;;;;;;;14.85;12.63;;;24.80;99.90;;;;;;5070032;28;20064;-79
2021/06/03 09:07:53;;;;;;;16.15;13.02;;;24.40;99.90;;;;;;5056756;28;20020;-81
2021/06/03 09:10:38;;;;;;;16.30;12.80;;;24.20;99.90;;;;;;5070964;28;20077;-82
2021/06/03 09:13:22;;;;;;;16.88;14.40;;;23.80;99.90;;;;;;5068339;28;20028;-80
2021/06/03 09:15:53;;;;;;;18.95;14.55;;;23.70;99.90;;;;;;5073426;28;20019;-81
2021/06/03 09:18:27;;;;;;;17.33;14.75;;;24.00;99.90;;;;;;5066862;28;20032;-82
2021/06/03 09:20:52;;;;;;;18.52;14.48;;;24.40;99.90;;;;;;5067458;28;20036;-82
2021/06/03 09:23:31;;;;;;;19.60;14.98;;;24.20;99.90;;;;;;5069694;28;20041;-82
2021/06/03 09:25:58;;;;;;;17.75;14.48;;;24.20;99.90;;;;;;5068472;28;20034;-82
2021/06/03 09:28:30;;;;;;;20.40;14.98;;;24.50;99.90;;;;;;5066896;28;20659;-82
2021/06/03 09:31:04;;;;;;;19.35;14.57;;;24.40;99.90;;;;;;5067954;28;20051;-81
2021/06/03 09:34:01;;;;;;;19.48;14.73;;;23.80;99.90;;;;;;5063728;28;20024;-83
2021/06/03 09:36:38;;;;;;;20.67;15.30;;;23.50;99.90;;;;;;5062301;28;20063;-83
2021/06/03 09:39:14;;;;;;;21.08;14.85;;;23.20;99.90;;;;;;5059539;28;20024;-81
2021/06/03 09:41:46;;;;;;;19.58;14.15;;;23.50;99.90;;;;;;5062000;28;20404;-81
2021/06/03 09:44:13;;;;;;;;;;;23.80;99.90;;;;;;5072153;28;20420;-82
2021/06/03 09:46:45;;;;;;;22.02;15.30;;;23.50;99.90;;;;;;5070592;28;19916;-81
2021/06/03 09:49:25;;;;;;;17.65;14.15;;;23.30;99.90;;;;;;5067529;28;20024;-83
2021/06/03 09:51:54;;;;;;;23.00;15.40;;;23.40;99.90;;;;;;5060536;28;20496;-83
2021/06/03 09:54:22;;;;;;;21.13;14.40;;;23.30;99.90;;;;;;5069665;28;20130;-83
2021/06/03 09:56:51;;;;;;;19.75;14.88;;;23.70;99.90;;;;;;5062105;28;20416;-81
2021/06/03 09:59:27;;;;;;;17.30;14.93;;;24.20;99.90;;;;;;5069803;28;20027;-79
2021/06/03 10:02:02;;;;;;;20.35;14.55;;;24.30;99.90;;;;;;5072913;28;20107;-79
2021/06/03 10:04:48;;;;;;;18.85;14.18;;;24.20;99.90;;;;;;5071492;28;20123;-81
2021/06/03 10:07:14;;;;;;;19.67;14.30;;;24.00;99.90;;;;;;5064410;28;20012;-81
2021/06/03 10:09:48;;;;;;;17.08;13.43;;;24.10;99.90;;;;;;5067214;28;20032;-81
2021/06/03 10:12:22;;;;;;;21.05;14.82;;;24.40;99.90;;;;;;5067819;28;20020;-83
2021/06/03 10:14:50;;;;;;;14.75;12.68;;;24.70;99.90;;;;;;5067067;28;20055;-83
2021/06/03 10:17:36;;;;;;;21.42;14.00;;;24.40;99.90;;;;;;5071475;28;20025;-84
2021/06/03 10:20:17;;;;;;;17.80;13.23;;;24.70;99.90;;;;;;5071303;28;20032;-83
2021/06/03 10:22:48;;;;;;;18.90;14.73;;;24.60;99.90;;;;;;5067482;28;20106;-82
2021/06/03 10:25:25;;;;;;;17.00;13.93;;;24.60;99.90;;;;;;5067583;28;20035;-82
2021/06/03 10:27:54;;;;;;;19.45;13.60;;;24.70;99.90;;;;;;5061882;28;20731;-82
2021/06/03 10:30:23;;;;;;;20.33;14.38;;;24.70;99.90;;;;;;5066203;28;20120;-82
2021/06/03 10:32:51;;;;;;;20.25;12.65;;;24.70;99.90;;;;;;5059261;28;20040;-81
2021/06/03 10:35:24;;;;;;;21.60;13.82;;;24.60;99.90;;;;;;5059681;28;20032;-81
2021/06/03 10:37:51;;;;;;;16.95;13.60;;;24.70;99.90;;;;;;5067340;28;20064;-81
2021/06/03 10:40:23;;;;;;;18.83;11.75;;;24.60;99.90;;;;;;5050365;28;20118;-81
2021/06/03 10:42:50;;;;;;;21.88;11.30;;;25.00;99.90;;;;;;5073382;28;20039;-81
2021/06/03 10:45:18;;;;;;;16.88;10.00;;;25.70;99.90;;;;;;5072625;28;20036;-82
2021/06/03 10:47:44;;;;;;;13.80;9.20;;;26.60;99.90;;;;;;5066609;28;20117;-81
2021/06/03 10:50:26;;;;;;;20.80;10.23;;;27.00;99.90;;;;;;5070598;28;20593;-82
2021/06/03 10:52:53;;;;;;;19.10;10.70;;;27.10;99.90;;;;;;5074191;28;20195;-81
2021/06/03 10:55:33;;;;;;;12.05;9.30;;;26.90;99.90;;;;;;5064484;28;20060;-83
2021/06/03 10:58:04;;;;;;;14.23;9.32;;;27.00;99.90;;;;;;5065940;28;20098;-82
2021/06/03 11:00:32;;;;;;;13.65;10.38;;;27.50;99.90;;;;;;5065955;28;20488;-82
2021/06/03 11:03:12;;;;;;;13.00;9.50;;;26.90;99.90;;;;;;5070963;28;20040;-84
2021/06/03 11:05:43;;;;;;;19.08;10.10;;;27.00;99.90;;;;;;5059139;28;20062;-81
2021/06/03 11:08:28;;;;;;;12.70;9.52;;;27.10;99.90;;;;;;5063330;28;20043;-83
2021/06/03 11:11:14;;;;;;;16.98;11.57;;;26.10;99.90;;;;;;5065085;28;20025;-82
2021/06/03 11:13:46;;;;;;;16.23;11.43;;;25.10;99.90;;;;;;5066786;28;20024;-81
2021/06/03 11:16:15;;;;;;;16.50;11.65;;;25.20;99.90;;;;;;5071176;28;20024;-81
2021/06/03 11:18:45;;;;;;;16.15;11.20;;;24.90;99.90;;;;;;5077031;28;20103;-82
2021/06/03 11:21:32;;;;;;;16.40;11.10;;;24.70;99.90;;;;;;5063085;28;20032;-81
2021/06/03 11:23:59;;;;;;;15.45;11.45;;;24.70;99.90;;;;;;5059828;28;20346;-82
2021/06/03 11:26:40;;;;;;;16.95;11.15;;;24.60;99.90;;;;;;5054698;28;20115;-81
2021/06/03 11:29:17;;;;;;;16.55;10.40;;;25.20;99.90;;;;;;5068228;28;20907;-83
2021/06/03 11:31:49;;;;;;;15.68;9.40;;;26.30;99.90;;;;;;5057938;28;20067;-81
2021/06/03 11:34:21;;;;;;;12.55;9.07;;;27.60;99.90;;;;;;5070337;28;20111;-85
2021/06/03 11:37:00;;;;;;;11.73;9.48;;;28.20;99.90;;;;;;5070656;28;20020;-81
2021/06/03 11:39:32;;;;;;;12.07;8.70;;;28.00;99.50;;;;;;5073988;28;20051;-82
2021/06/03 11:42:36;;;;;;;12.73;9.13;;;28.30;98.80;;;;;;5061565;28;20492;-84
2021/06/03 11:45:35;;;;;;;11.27;9.35;;;28.20;97.20;;;;;;5062318;28;20036;-85
2021/06/03 11:48:05;;;;;;;9.95;8.18;;;27.70;98.50;;;;;;5032368;28;20050;-83
2021/06/03 11:50:31;;;;;;;15.38;9.20;;;28.80;96.00;;;;;;5067172;28;20078;-83
2021/06/03 11:52:59;;;;;;;14.13;9.50;;;28.60;96.00;;;;;;5073890;28;20020;-83
2021/06/03 11:55:31;;;;;;;14.45;10.23;;;28.40;96.20;;;;;;5054673;28;20029;-84
2021/06/03 11:58:24;;;;;;;13.23;8.90;;;29.50;92.90;;;;;;5064956;28;20048;-83
2021/06/03 12:01:03;;;;;;;12.88;9.55;;;30.50;91.30;;;;;;5067964;28;20040;-82
2021/06/03 12:03:35;;;;;;;12.95;8.23;;;29.10;91.50;;;;;;5071073;28;20040;-82
2021/06/03 12:06:37;;;;;;;16.08;9.15;;;29.70;91.50;;;;;;5065608;28;20074;-85
2021/06/03 12:09:20;;;;;;;11.50;7.75;;;29.40;90.50;;;;;;5062207;28;20476;-84
2021/06/03 12:11:49;;;;;;;12.40;8.90;;;29.90;91.40;;;;;;5070456;28;20469;-85
2021/06/03 12:14:19;;;;;;;13.48;8.20;;;29.70;89.70;;;;;;5073889;28;20085;-82
2021/06/03 12:16:47;;;;;;;11.85;8.45;;;29.30;92.20;;;;;;5064389;28;20020;-83
2021/06/03 12:19:21;;;;;;;10.55;8.35;;;29.20;91.10;;;;;;5070142;28;20056;-88
2021/06/03 12:21:52;;;;;;;13.98;8.10;;;28.70;90.70;;;;;;5071318;28;20021;-88
2021/06/03 12:24:18;;;;;;;13.93;8.00;;;28.00;92.30;;;;;;5074870;28;20040;-90
2021/06/03 12:26:44;;;;;;;14.75;8.75;;;27.50;92.70;;;;;;5072965;28;20067;-89
2021/06/03 12:29:33;;;;;;;12.98;7.88;;;28.00;92.30;;;;;;5059901;28;20574;-89
2021/06/03 12:32:01;;;;;;;10.32;8.43;;;27.60;93.00;;;;;;5074977;28;20032;-85
2021/06/03 12:34:31;;;;;;;11.00;8.48;;;27.60;91.90;;;;;;5073380;28;20028;-85
2021/06/03 12:36:57;;;;;;;10.80;7.38;;;27.80;92.00;;;;;;5075995;28;20104;-85
2021/06/03 12:39:23;;;;;;;11.10;7.88;;;27.70;91.90;;;;;;5076461;28;20358;-85
2021/06/03 12:41:52;;;;;;;10.98;8.05;;;27.40;91.80;;;;;;5073967;28;20040;-85
2021/06/03 12:44:23;;;;;;;12.70;8.82;;;27.50;92.70;;;;;;5076063;28;20082;-85
2021/06/03 12:46:52;;;;;;;14.30;8.23;;;27.20;94.40;;;;;;5076115;28;20115;-85